Portada
METAR-TAF:

METAR-TAF

Aeroports :

Gwened, França

latitud: 47-43-19N, longitud: 2-43-41W, altitud: 130 m

Observació

L'informe es va fer fa 32 minuts, a les 02:00 UTC
Vent 5 kt del Sud/Sud-Oest, variant entre Sud/Sud-Est i Oest/Sud-Oest
Temperatura 13°C
Humitat 100%
Pressió 1013 hPa
Visibilitat 10 km o més
Cel ennuvolat a una alçada de 700 ft
Cel ennuvolat a una alçada de 1600 ft
Cel cobert a una alçada de 5400 ft

METAR: LFRV 240200Z AUTO 20005KT 160V240 9999 BKN007 BKN016 OVC054 13/13 Q1013

Hora: 04:32 (02:32 UTC)


TAF: manca

Observacions i pronòstics meteorològics de més de 4000 aeroports (METAR i TAF).

Les estacions disponibles són els punts grocs i vermells al mapa.

Posi el ratolí al punt desitjat per veure el nom de l'estació.

Feu clic per veure les observacions i els pronòstics meteorològics.

Per canviar el mapa: feu clic els botons verds amb una creu de color negre per apropar; al botó verd amb un guió per allunyar la imatge; o en les fletxes verdes per a mapes adjacents.


METAR-TAF: